Station: Sunshine Coast Airport  

  Atmospheric Gas Attenuation - ITU Rec 676-11   ----------------- dB/100km -----------------
Date Time Temp RH % AH g/m3 Dew Point Wind Direction Speed kph Gust kph Barometer mB Rainfall Since 9am 24GHz 47GHz 76GHz 122GHz 134GHz 241GHz
01/09 13:40 21.2 68 12.6 15.1 17 20 1026.1 0 27.6 30.6 52.5 138.3 142.1 492.1
01/09 13:30 21.3 70 13.05 15.6 17 20 1026.2 0 28.6 31.4 54.4 143.2 148.1 513.2
01/09 13:20 20.9 69 12.57 15 17 20 1026.4 0 27.6 30.7 52.6 138.5 142.3 492.7
01/09 13:10 21 70 12.82 15.3 17 20 1026.5 0 28.1 31.1 53.6 141.2 145.6 504.1
01/09 13:00 21.3 72 13.42 16 17 22 1026.6 0 29.4 32.0 56.0 147.5 153.4 531.4
01/09 12:50 21.1 71 13.08 15.6 19 22 1026.8 0 28.7 31.5 54.7 144.0 149.0 516.2
01/09 12:40 21.6 70 13.28 15.9 15 20 1027 0 29.1 31.7 55.2 145.4 150.8 522.7
01/09 12:30 21.4 67 12.56 15 15 19 1027.1 0 27.5 30.5 52.3 137.6 141.3 489.3
01/09 12:20 21.8 70 13.43 16.1 15 19 1027.3 0 29.4 31.9 55.7 146.7 152.6 528.8
01/09 12:10 21.2 66 12.23 14.6 15 20 1027.4 0 26.9 30.1 51.0 134.4 137.2 474.9
01/09 12:00 21.2 69 12.79 15.3 17 19 1027.4 0 28.0 31.0 53.4 140.6 144.9 501.7
01/09 11:50 21.3 69 12.86 15.4 17 20 1027.6 0 28.2 31.1 53.6 141.2 145.7 504.5
01/09 11:40 21.3 68 12.67 15.2 17 20 1027.8 0 27.8 30.8 52.8 139.1 143.1 495.4
01/09 11:30 21.3 63 11.74 14 15 20 1027.7 0 25.8 29.2 49.0 128.9 130.4 451.3
01/09 11:20 21.4 65 12.19 14.6 15 19 1028.1 0 26.8 30.0 50.8 133.7 136.4 472.1
01/09 11:10 21.8 62 11.89 14.2 13 19 1028.3 0 26.1 29.3 49.3 129.7 131.7 455.7
01/09 11:00 21.7 59 11.25 13.3 15 17 1028.3 0 24.8 28.3 46.8 123.0 123.4 426.7
01/09 10:50 21.5 62 11.69 13.9 13 19 1028.6 0 25.7 29.1 48.7 128.1 129.5 448.2
01/09 10:40 21.4 61 11.44 13.6 13 19 1028.9 0 25.2 28.8 47.8 125.6 126.4 437.2
01/09 10:30 21 62 11.36 13.4 13 17 1029 0 25.0 28.8 47.7 125.4 126.0 435.8
01/09 10:20 21.2 62 11.49 13.6 13 20 1029.3 0 25.3 28.9 48.1 126.5 127.4 440.8
01/09 10:10 21.1 62 11.42 13.5 13 17 1029.4 0 25.1 28.8 47.9 125.9 126.7 438.2
01/09 10:00 20.8 62 11.23 13.3 11 17 1029.3 0 24.8 28.6 47.3 124.3 124.6 431.0
01/09 09:50 20.7 60 10.8 12.7 11 15 1029.3 0 23.9 28.0 45.6 119.9 119.1 411.7
01/09 09:40 21.2 65 12.04 14.4 9 15 1029.3 0 26.4 29.8 50.4 132.5 134.8 466.6
01/09 09:30 20.5 72 12.81 15.3 7 11 1029.2 0 28.1 31.4 54.0 142.3 146.7 507.9
01/09 09:20 20 72 12.44 14.8 7 11 1029.4 0 27.4 30.9 52.8 139.1 142.5 493.2
01/09 09:10 19.5 73 12.25 14.5 11 17 1029.4 0 27.0 30.8 52.4 137.8 140.7 487.1
01/09 09:00 19.6 75 12.66 15 13 17 1029.4 0 27.9 31.4 54.0 142.3 146.3 506.5
01/09 08:50 19.4 77 12.85 15.3 13 17 1029.5 3.8 28.3 31.9 55.0 144.9 149.4 517.3
01/09 08:40 19 78 12.71 15.1 17 19 1029.6 3.8 28.0 31.8 54.7 144.0 148.2 513.0
01/09 08:30 18.6 79 12.57 14.9 15 19 1029.4 3.8 27.7 31.7 54.3 143.1 146.9 508.6
01/09 08:20 18.3 80 12.51 14.8 15 19 1029.5 3.8 27.6 31.7 54.3 142.9 146.7 507.6
01/09 08:10 18 84 12.9 15.3 15 20 1029.4 3.8 28.5 32.5 56.2 148.1 152.9 529.2
01/09 08:00 17.7 89 13.43 15.9 13 17 1029.3 3.8 29.6 33.5 58.8 155.0 161.3 558.5
01/09 07:50 17.1 93 13.54 16 7 9 1029.3 3.8 29.9 34.0 59.8 157.5 164.2 568.6
01/09 07:40 16.3 93 12.9 15.2 7 9 1029.2 3.8 28.6 33.1 57.5 151.4 156.3 541.0
01/09 07:30 15.9 93 12.59 14.8 9 11 1029 3.8 28.0 32.7 56.3 148.4 152.5 527.7
01/09 07:20 15.8 93 12.52 14.7 9 13 1029 3.8 27.8 32.6 56.1 147.7 151.7 524.7
01/09 07:10 15.5 93 12.29 14.4 7 11 1028.8 3.8 27.4 32.3 55.3 145.5 148.8 514.8
01/09 07:00 15.5 93 12.29 14.4 7 7 1028.6 3.8 27.4 32.3 55.3 145.5 148.8 514.7
01/09 06:50 15.4 94 12.35 14.4 6 7 1028.5 3.8 27.5 32.4 55.6 146.4 149.9 518.5
01/09 06:40 15.3 93 12.14 14.2 6 7 1028.4 3.8 27.1 32.1 54.7 144.0 147.0 508.3
01/09 06:30 15.2 93 12.07 14.1 7 9 1028.2 3.8 26.9 32.0 54.5 143.3 146.1 505.3
01/09 06:20 15.3 94 12.28 14.3 9 11 1028.1 3.8 27.4 32.3 55.3 145.7 149.0 515.4
01/09 06:10 15.2 93 12.07 14.1 9 11 1027.9 3.8 26.9 32.0 54.4 143.3 146.1 505.2
01/09 06:00 15.2 94 12.2 14.2 9 9 1027.7 3.8 27.2 32.2 55.0 144.8 148.0 511.8
01/09 05:50 15 93 11.93 13.9 9 11 1027.7 3.8 26.6 31.8 53.9 142.0 144.4 499.2
01/09 05:40 14.8 93 11.78 13.7 6 7 1027.6 3.8 26.3 31.6 53.4 140.5 142.5 492.8
01/09 05:30 14.9 93 11.85 13.8 6 9 1027.4 3.8 26.5 31.6 53.6 141.2 143.4 495.6
01/09 05:20 15.3 93 12.14 14.2 7 9 1027.3 3.8 27.1 32.0 54.7 143.9 146.8 507.9
01/09 05:10 15.4 93 12.22 14.3 9 11 1027.3 3.8 27.2 32.1 54.9 144.7 147.8 511.3
01/09 05:00 15.2 93 12.07 14.1 9 11 1027.2 3.8 26.9 31.9 54.4 143.2 146.0 504.9
01/09 04:50 15.2 93 12.07 14.1 9 13 1027.3 3.8 26.9 31.9 54.4 143.2 146.0 504.9
01/09 04:40 15.2 93 12.07 14.1 9 11 1027.4 3.8 26.9 31.9 54.4 143.2 146.0 505.0
01/09 04:30 15.4 93 12.22 14.3 7 9 1027.3 3.8 27.2 32.1 54.9 144.7 147.8 511.3
01/09 04:20 15.6 93 12.37 14.5 9 13 1027.4 3.8 27.5 32.3 55.5 146.1 149.7 517.7
01/09 04:10 15.6 93 12.37 14.5 11 15 1027.5 3.8 27.5 32.3 55.5 146.1 149.7 517.8
01/09 04:00 15.6 93 12.37 14.5 11 13 1027.2 3.6 27.5 32.3 55.5 146.1 149.6 517.7
01/09 03:50 15.7 93 12.44 14.6 11 15 1027.3 3.6 27.7 32.4 55.7 146.7 150.5 520.6
01/09 03:40 15.7 93 12.44 14.6 13 17 1027.3 3.6 27.7 32.4 55.7 146.7 150.5 520.6
01/09 03:30 15.7 92 12.31 14.4 11 17 1027.1 3.6 27.4 32.2 55.1 145.1 148.6 513.9
01/09 03:20 15.7 92 12.31 14.4 11 15 1027.3 3.6 27.4 32.2 55.1 145.2 148.6 513.9
01/09 03:10 15.7 92 12.31 14.4 13 17 1027.3 3.6 27.4 32.2 55.1 145.2 148.6 513.9
01/09 03:00 15.8 92 12.38 14.5 9 15 1027.2 3.6 27.5 32.3 55.4 145.8 149.4 516.8
01/09 02:50 15.9 92 12.46 14.6 9 13 1027.4 3.6 27.7 32.4 55.7 146.6 150.4 520.3
01/09 02:40 16.2 92 12.69 14.9 9 11 1027.5 3.6 28.2 32.7 56.5 148.8 153.2 530.2
01/09 02:30 16.2 92 12.69 14.9 9 13 1027.5 3.6 28.2 32.7 56.5 148.8 153.2 530.2
01/09 02:20 16.2 93 12.82 15.1 11 17 1027.7 2.6 28.5 32.9 57.1 150.4 155.2 537.0
01/09 02:10 16 94 12.81 15 11 20 1027.8 1.8 28.4 33.0 57.2 150.7 155.4 537.9
01/09 02:00 15.6 93 12.37 14.5 9 11 1027.8 1.8 27.5 32.3 55.5 146.1 149.7 517.9
01/09 01:50 15.6 93 12.37 14.5 11 13 1027.9 1.8 27.5 32.3 55.5 146.2 149.7 517.9
01/09 01:40 15.5 93 12.29 14.4 9 13 1028.2 1.8 27.4 32.2 55.2 145.4 148.8 514.6
01/09 01:30 15.5 93 12.29 14.4 6 11 1028.3 1.8 27.4 32.3 55.2 145.4 148.8 514.6
01/09 01:20 15.4 93 12.22 14.3 9 11 1028.5 1.8 27.2 32.2 55.0 144.8 148.0 511.8
01/09 01:10 14.9 93 11.85 13.8 9 11 1028.4 1.8 26.5 31.7 53.7 141.3 143.5 496.0
01/09 01:00 14.8 92 11.65 13.5 6 9 1028.4 1.8 26.0 31.4 52.9 139.1 140.7 486.4
01/09 00:50 15.3 93 12.14 14.2 7 7 1028.7 1.8 27.1 32.1 54.7 144.1 147.0 508.4
01/09 00:40 15.5 93 12.29 14.4 7 9 1028.7 1.8 27.4 32.3 55.3 145.5 148.8 514.8
01/09 00:30 15.7 93 12.44 14.6 7 9 1028.6 1.8 27.7 32.5 55.8 146.9 150.6 521.1
01/09 00:20 16 93 12.67 14.9 7 9 1028.7 1.8 28.1 32.8 56.6 149.1 153.5 531.0
01/09 00:10 16.1 93 12.75 15 9 13 1028.9 1.8 28.3 32.9 56.9 149.9 154.5 534.5
01/09 00:00 16.2 93 12.82 15.1 9 11 1029 1.8 28.4 33.0 57.2 150.6 155.3 537.5
31/08 23:50 16.1 93 12.75 15 9 13 1029.1 1.2 28.3 32.9 56.9 149.9 154.5 534.6
31/08 23:40 16 93 12.67 14.9 9 11 1029.1 1.2 28.1 32.8 56.6 149.1 153.5 531.2
31/08 23:30 15.8 92 12.38 14.5 9 11 1029.1 1.2 27.5 32.3 55.5 146.0 149.6 517.6
31/08 23:20 15.9 92 12.46 14.6 9 11 1029.2 1.2 27.7 32.4 55.8 146.8 150.6 521.0
31/08 23:10 16.1 92 12.61 14.8 9 9 1029.3 1.2 28.0 32.6 56.3 148.3 152.4 527.4
31/08 23:00 16.2 92 12.69 14.9 9 9 1029.1 1.2 28.2 32.7 56.6 149.0 153.4 530.8
31/08 22:50 16.3 92 12.76 15 9 11 1029.3 1.2 28.3 32.8 56.8 149.7 154.3 533.8
31/08 22:40 16.2 91 12.55 14.7 7 9 1029.4 1.2 27.9 32.5 56.0 147.4 151.4 523.7
31/08 22:30 16.3 91 12.62 14.8 7 9 1029.4 1.2 28.0 32.6 56.2 148.0 152.2 526.6
31/08 22:20 16.5 90 12.64 14.9 6 6 1029.7 1 28.0 32.6 56.2 147.9 152.1 526.4
31/08 22:10 16.6 90 12.71 15 9 11 1029.5 0.8 28.2 32.6 56.4 148.5 152.9 529.2
31/08 22:00 16.6 90 12.71 15 11 13 1029.4 0.8 28.2 32.6 56.4 148.5 152.9 529.2
31/08 21:50 16.8 89 12.72 15 11 15 1029.6 0.8 28.2 32.6 56.3 148.3 152.7 528.4
31/08 21:40 17 88 12.73 15 9 11 1029.6 0.8 28.2 32.5 56.2 148.0 152.4 527.5
31/08 21:30 17.4 87 12.89 15.2 6 7 1029.5 0.8 28.5 32.7 56.6 149.1 154.0 532.9
31/08 21:20 17.4 87 12.89 15.2 6 7 1029.7 0.8 28.5 32.7 56.6 149.1 154.0 533.0
31/08 21:10 17.3 87 12.82 15.1 6 7 1029.6 0.8 28.4 32.6 56.4 148.5 153.1 530.1

Last Refresh: 01-Sep-2026 13:29:01

Bureau of Meteorology